Huvudsida
METAR-TAF:

METAR-TAF

Flygplatser :

Kristiansands flygplats. Kjevik

Kristiansand, Norge

latitud: 58-12N, longitud: 008-05E, höjd: 1 m

Aktuellt väderrapport

Denna rapport gjordes för 17 minuter sedan, klockan 19:20 UTC
Vind 4 kt från syd
Temperatur 20°C
Fuktighet 78%
Tryck 1018 hPa
Sikt 10 km eller mer
Inga moln under 1 500 m eller inga cumulonimbus

METAR: ENCN 251920Z 18004KT CAVOK 20/16 Q1018

Tid: 21:37 (19:37 UTC)

Väderprognos

Denna rapport gjordes för 2 timmar och 37 minuter sedan, klockan 17:00 UTC
Prognos gäller från 25 kl. 18 UTC till 25 kl. 21 UTC
Vind 10 kt från syd/sydväst
Sikt 10 km eller mer
Inga moln under 1 500 m eller inga cumulonimbus
Blir
från 25 kl. 18 UTC till 25 kl. 21 UTC
Vind 5 kt varierande vindriktning

TAF: ENCN 251700Z 2518/2521 20010KT CAVOK BECMG 2518/2521 VRB05KT

Aktuella väderrapporter och prognoser från 4000 flygplatser (METAR- och TAF-rapporter).

De tillgängliga stationerna syns som gula och röda prickar på kartan.

För musen över prickarna för att se namnen på stationerna.

Klicka sedan för att få väderrapporter och prognoser.

För att ändra kartan: Klicka på de gröna knapparna med ett svart kors på för att zooma in; den gröna knappen med ett streck på för att zooma ut; eller på de gröna pilarna för angränsande kartor.


METAR-TAF: